Meath Environmental Platform

Observations for Trim Market St

Time AQI Temp °C Hum % Pres Pa CO μg/m³ H₂S μg/m³ NO μg/m³ NO₂ μg/m³ O₃ μg/m³ SO₂ μg/m³ PM1 μg/m³ PM2.5 μg/m³ PM10 μg/m³
Friday 14 August 2026
00:57 2 24.1 69 54,815 0 0 1.05 13.79 47.13 0 0.71 2.63 4.36
00:56 2 24.1 69 54,833 0 0 1.03 15.08 49.38 0 0 1.16 2.45
00:55 2 24.1 69 54,854 0 0 1.03 14.04 49.22 0 1.43 2.63 5.63
00:54 2 24.1 69 54,855 0 0 1.02 13.95 50.04 0 1.43 4.09 6.26
00:53 2 24.1 69 54,862 0 0 1.05 14.76 47.74 0 0.71 2.63 5.63
00:52 2 24.1 69 54,895 0 0 1.02 13.35 52.25 0 1.43 3.61 6.26
00:47 2 24.2 68 55,028 0 0 1.04 14.37 49.51 0 1.43 3.13 5.62
00:46 2 24.2 68 55,053 0 0 1.03 14.29 49.06 0 1.43 3.13 4.98
00:38 2 24.3 68 55,581 0 0.64 0.97 16.47 48.11 0 1.43 3.16 5.61
00:37 2 24.3 68 55,641 0 0.54 1.02 17.49 46.38 0 2.85 4.63 8.17
00:34 2 24.3 68 55,723 0 0 1.01 14.98 48.67 0 2.14 4.14 6.25
00:33 2 24.3 68 55,753 0 0 1.01 15.64 48.65 0 2.14 4.64 7.53
00:32 2 24.3 68 55,782 0 0 0.99 14.98 48.85 0 1.43 4.15 6.25
00:30 2 24.3 68 55,826 0 0.38 1 16.87 49 0 1.43 4.15 6.25
00:27 2 24.3 67 55,904 0 0 1.02 14.75 49.9 0 1.43 3.18 4.96
00:26 2 24.3 67 55,920 0 0 1.02 14.82 49.82 0 2.14 4.16 7.53
00:25 2 24.4 67 55,944 0 0 1.02 15.32 49.39 0 0.71 2.2 4.32
00:24 2 24.4 67 55,981 0 0 1.02 16.41 48.97 0 1.43 3.18 6.24
00:22 2 24.4 67 56,060 0 0.21 0.99 15.57 47.35 0 1.43 3.19 4.95
00:21 2 24.4 67 56,102 0 0 0.98 14.85 55.62 0 2.14 3.69 6.24